sensor_id;sensor_type;location;lat;lon;timestamp;temperature;humidity
5870;DHT22;2961;47.702;9.410;2023-07-28T00:00:44;14.30;99.90
5870;DHT22;2961;47.702;9.410;2023-07-28T00:03:11;14.30;99.90
5870;DHT22;2961;47.702;9.410;2023-07-28T00:05:38;14.10;99.90
5870;DHT22;2961;47.702;9.410;2023-07-28T00:08:04;14.00;99.90
5870;DHT22;2961;47.702;9.410;2023-07-28T00:10:31;14.00;99.90
5870;DHT22;2961;47.702;9.410;2023-07-28T00:12:59;14.00;99.90
5870;DHT22;2961;47.702;9.410;2023-07-28T00:15:26;14.00;99.90
5870;DHT22;2961;47.702;9.410;2023-07-28T00:17:54;14.00;99.90
5870;DHT22;2961;47.702;9.410;2023-07-28T00:20:21;13.90;99.90
5870;DHT22;2961;47.702;9.410;2023-07-28T00:22:48;14.00;99.90
5870;DHT22;2961;47.702;9.410;2023-07-28T00:25:15;14.00;99.90
5870;DHT22;2961;47.702;9.410;2023-07-28T00:27:41;14.00;99.90
5870;DHT22;2961;47.702;9.410;2023-07-28T00:30:10;14.00;99.90
5870;DHT22;2961;47.702;9.410;2023-07-28T00:32:37;14.10;99.90
5870;DHT22;2961;47.702;9.410;2023-07-28T00:35:06;13.90;99.90
5870;DHT22;2961;47.702;9.410;2023-07-28T00:37:33;13.90;99.90
5870;DHT22;2961;47.702;9.410;2023-07-28T00:39:59;13.80;99.90
5870;DHT22;2961;47.702;9.410;2023-07-28T00:42:26;13.70;99.90
5870;DHT22;2961;47.702;9.410;2023-07-28T00:44:53;13.60;99.90
5870;DHT22;2961;47.702;9.410;2023-07-28T00:47:20;13.80;99.90
5870;DHT22;2961;47.702;9.410;2023-07-28T00:49:47;13.80;99.90
5870;DHT22;2961;47.702;9.410;2023-07-28T00:52:15;13.80;99.90
5870;DHT22;2961;47.702;9.410;2023-07-28T00:54:42;13.70;99.90
5870;DHT22;2961;47.702;9.410;2023-07-28T00:57:09;13.70;99.90
5870;DHT22;2961;47.702;9.410;2023-07-28T00:59:36;13.70;99.90
5870;DHT22;2961;47.702;9.410;2023-07-28T01:02:03;13.70;99.90
5870;DHT22;2961;47.702;9.410;2023-07-28T01:04:30;13.60;99.90
5870;DHT22;2961;47.702;9.410;2023-07-28T01:07:03;13.60;99.90
5870;DHT22;2961;47.702;9.410;2023-07-28T01:09:40;13.70;99.90
5870;DHT22;2961;47.702;9.410;2023-07-28T01:12:08;13.70;99.90
5870;DHT22;2961;47.702;9.410;2023-07-28T01:14:35;13.70;99.90
5870;DHT22;2961;47.702;9.410;2023-07-28T01:17:02;13.60;99.90
5870;DHT22;2961;47.702;9.410;2023-07-28T01:19:29;13.70;99.90
5870;DHT22;2961;47.702;9.410;2023-07-28T01:22:03;13.70;99.90
5870;DHT22;2961;47.702;9.410;2023-07-28T01:24:42;13.90;99.90
5870;DHT22;2961;47.702;9.410;2023-07-28T01:27:16;14.00;99.90
5870;DHT22;2961;47.702;9.410;2023-07-28T01:29:43;14.00;99.90
5870;DHT22;2961;47.702;9.410;2023-07-28T01:32:10;14.10;99.90
5870;DHT22;2961;47.702;9.410;2023-07-28T01:34:37;14.10;99.90
5870;DHT22;2961;47.702;9.410;2023-07-28T01:37:04;14.20;99.90
5870;DHT22;2961;47.702;9.410;2023-07-28T01:39:31;14.20;99.90
5870;DHT22;2961;47.702;9.410;2023-07-28T01:41:58;14.20;99.90
5870;DHT22;2961;47.702;9.410;2023-07-28T01:44:27;14.20;99.90
5870;DHT22;2961;47.702;9.410;2023-07-28T01:46:54;14.30;99.90
5870;DHT22;2961;47.702;9.410;2023-07-28T01:49:20;14.30;99.90
5870;DHT22;2961;47.702;9.410;2023-07-28T01:51:47;14.20;99.90
5870;DHT22;2961;47.702;9.410;2023-07-28T01:54:14;14.30;99.90
5870;DHT22;2961;47.702;9.410;2023-07-28T01:56:41;14.20;99.90
5870;DHT22;2961;47.702;9.410;2023-07-28T01:59:07;14.20;99.90
5870;DHT22;2961;47.702;9.410;2023-07-28T02:01:36;14.10;99.90
5870;DHT22;2961;47.702;9.410;2023-07-28T02:04:03;13.90;99.90
5870;DHT22;2961;47.702;9.410;2023-07-28T02:06:31;13.80;99.90
5870;DHT22;2961;47.702;9.410;2023-07-28T02:08:58;13.70;99.90
5870;DHT22;2961;47.702;9.410;2023-07-28T02:11:24;13.70;99.90
5870;DHT22;2961;47.702;9.410;2023-07-28T02:13:51;13.70;99.90
5870;DHT22;2961;47.702;9.410;2023-07-28T02:16:18;13.70;99.90
5870;DHT22;2961;47.702;9.410;2023-07-28T02:18:46;13.70;99.90
5870;DHT22;2961;47.702;9.410;2023-07-28T02:21:13;13.60;99.90
5870;DHT22;2961;47.702;9.410;2023-07-28T02:23:39;13.60;99.90
5870;DHT22;2961;47.702;9.410;2023-07-28T02:26:06;13.60;99.90
5870;DHT22;2961;47.702;9.410;2023-07-28T02:28:33;13.50;99.90
5870;DHT22;2961;47.702;9.410;2023-07-28T02:31:00;13.50;99.90
5870;DHT22;2961;47.702;9.410;2023-07-28T02:33:27;13.50;99.90
5870;DHT22;2961;47.702;9.410;2023-07-28T02:35:56;13.50;99.90
5870;DHT22;2961;47.702;9.410;2023-07-28T02:38:23;13.50;99.90
5870;DHT22;2961;47.702;9.410;2023-07-28T02:40:49;13.60;99.90
5870;DHT22;2961;47.702;9.410;2023-07-28T02:43:16;13.60;99.90
5870;DHT22;2961;47.702;9.410;2023-07-28T02:45:43;13.70;99.90
5870;DHT22;2961;47.702;9.410;2023-07-28T02:48:10;13.70;99.90
5870;DHT22;2961;47.702;9.410;2023-07-28T02:50:37;13.80;99.90
5870;DHT22;2961;47.702;9.410;2023-07-28T02:53:05;13.90;99.90
5870;DHT22;2961;47.702;9.410;2023-07-28T02:55:32;14.00;99.90
5870;DHT22;2961;47.702;9.410;2023-07-28T02:57:58;14.00;99.90
5870;DHT22;2961;47.702;9.410;2023-07-28T03:00:25;14.00;99.90
5870;DHT22;2961;47.702;9.410;2023-07-28T03:02:52;14.10;99.90
5870;DHT22;2961;47.702;9.410;2023-07-28T03:05:19;14.10;99.90
5870;DHT22;2961;47.702;9.410;2023-07-28T03:07:47;14.20;99.90
5870;DHT22;2961;47.702;9.410;2023-07-28T03:10:15;14.20;99.90
5870;DHT22;2961;47.702;9.410;2023-07-28T03:12:42;14.20;99.90
5870;DHT22;2961;47.702;9.410;2023-07-28T03:15:09;14.20;99.90
5870;DHT22;2961;47.702;9.410;2023-07-28T03:17:36;14.30;99.90
5870;DHT22;2961;47.702;9.410;2023-07-28T03:20:03;14.30;99.90
5870;DHT22;2961;47.702;9.410;2023-07-28T03:22:30;14.40;99.90
5870;DHT22;2961;47.702;9.410;2023-07-28T03:24:57;14.50;99.90
5870;DHT22;2961;47.702;9.410;2023-07-28T03:27:25;14.40;99.90
5870;DHT22;2961;47.702;9.410;2023-07-28T03:29:52;14.50;99.90
5870;DHT22;2961;47.702;9.410;2023-07-28T03:32:19;14.50;99.90
5870;DHT22;2961;47.702;9.410;2023-07-28T03:34:46;14.50;99.90
5870;DHT22;2961;47.702;9.410;2023-07-28T03:37:12;14.50;99.90
5870;DHT22;2961;47.702;9.410;2023-07-28T03:39:39;14.50;99.90
5870;DHT22;2961;47.702;9.410;2023-07-28T03:42:06;14.60;99.90
5870;DHT22;2961;47.702;9.410;2023-07-28T03:44:35;14.50;99.90
5870;DHT22;2961;47.702;9.410;2023-07-28T03:47:03;14.40;99.90
5870;DHT22;2961;47.702;9.410;2023-07-28T03:49:30;14.40;99.90
5870;DHT22;2961;47.702;9.410;2023-07-28T03:51:57;14.30;99.90
5870;DHT22;2961;47.702;9.410;2023-07-28T03:54:23;14.20;99.90
5870;DHT22;2961;47.702;9.410;2023-07-28T03:56:50;14.10;99.90
5870;DHT22;2961;47.702;9.410;2023-07-28T03:59:17;14.10;99.90
5870;DHT22;2961;47.702;9.410;2023-07-28T04:01:45;14.10;99.90
5870;DHT22;2961;47.702;9.410;2023-07-28T04:04:13;14.00;99.90
5870;DHT22;2961;47.702;9.410;2023-07-28T04:06:41;14.00;99.90
5870;DHT22;2961;47.702;9.410;2023-07-28T04:09:08;13.90;99.90
5870;DHT22;2961;47.702;9.410;2023-07-28T04:11:35;13.90;99.90
5870;DHT22;2961;47.702;9.410;2023-07-28T04:14:02;13.80;99.90
5870;DHT22;2961;47.702;9.410;2023-07-28T04:16:29;13.80;99.90
5870;DHT22;2961;47.702;9.410;2023-07-28T04:18:57;13.80;99.90
5870;DHT22;2961;47.702;9.410;2023-07-28T04:21:24;13.80;99.90
5870;DHT22;2961;47.702;9.410;2023-07-28T04:23:51;14.00;99.90
5870;DHT22;2961;47.702;9.410;2023-07-28T04:26:18;14.10;99.90
5870;DHT22;2961;47.702;9.410;2023-07-28T04:28:45;14.20;99.90
5870;DHT22;2961;47.702;9.410;2023-07-28T04:31:11;14.30;99.90
5870;DHT22;2961;47.702;9.410;2023-07-28T04:33:41;14.20;99.90
5870;DHT22;2961;47.702;9.410;2023-07-28T04:36:09;14.30;99.90
5870;DHT22;2961;47.702;9.410;2023-07-28T04:38:36;14.30;99.90
5870;DHT22;2961;47.702;9.410;2023-07-28T04:41:03;14.40;99.90
5870;DHT22;2961;47.702;9.410;2023-07-28T04:43:29;14.50;99.90
5870;DHT22;2961;47.702;9.410;2023-07-28T04:45:56;14.50;99.90
5870;DHT22;2961;47.702;9.410;2023-07-28T04:48:23;14.70;99.90
5870;DHT22;2961;47.702;9.410;2023-07-28T04:50:50;14.80;99.90
5870;DHT22;2961;47.702;9.410;2023-07-28T04:53:18;14.80;99.90
5870;DHT22;2961;47.702;9.410;2023-07-28T04:55:45;14.90;99.90
5870;DHT22;2961;47.702;9.410;2023-07-28T04:58:11;14.90;99.90
5870;DHT22;2961;47.702;9.410;2023-07-28T05:00:38;15.00;99.90
5870;DHT22;2961;47.702;9.410;2023-07-28T05:03:05;15.10;99.90
5870;DHT22;2961;47.702;9.410;2023-07-28T05:05:32;15.10;99.90
5870;DHT22;2961;47.702;9.410;2023-07-28T05:07:58;15.30;99.90
5870;DHT22;2961;47.702;9.410;2023-07-28T05:10:27;15.30;99.90
5870;DHT22;2961;47.702;9.410;2023-07-28T05:12:53;15.40;99.90
5870;DHT22;2961;47.702;9.410;2023-07-28T05:15:20;15.50;99.90
5870;DHT22;2961;47.702;9.410;2023-07-28T05:17:49;15.60;99.90
5870;DHT22;2961;47.702;9.410;2023-07-28T05:20:16;15.70;99.90
5870;DHT22;2961;47.702;9.410;2023-07-28T05:22:43;15.80;99.90
5870;DHT22;2961;47.702;9.410;2023-07-28T05:25:09;16.00;99.90
5870;DHT22;2961;47.702;9.410;2023-07-28T05:27:38;16.20;99.90
5870;DHT22;2961;47.702;9.410;2023-07-28T05:30:06;16.40;99.90
5870;DHT22;2961;47.702;9.410;2023-07-28T05:32:33;16.50;99.90
5870;DHT22;2961;47.702;9.410;2023-07-28T05:35:00;16.60;99.90
5870;DHT22;2961;47.702;9.410;2023-07-28T05:37:27;16.70;99.90
5870;DHT22;2961;47.702;9.410;2023-07-28T05:39:54;16.90;99.90
5870;DHT22;2961;47.702;9.410;2023-07-28T05:42:21;16.90;99.90
5870;DHT22;2961;47.702;9.410;2023-07-28T05:44:51;17.00;99.90
5870;DHT22;2961;47.702;9.410;2023-07-28T05:47:20;17.10;99.90
5870;DHT22;2961;47.702;9.410;2023-07-28T05:49:47;17.20;99.90
5870;DHT22;2961;47.702;9.410;2023-07-28T05:52:14;17.40;99.90
5870;DHT22;2961;47.702;9.410;2023-07-28T05:54:41;17.40;99.90
5870;DHT22;2961;47.702;9.410;2023-07-28T05:57:07;17.60;99.90
5870;DHT22;2961;47.702;9.410;2023-07-28T05:59:34;17.60;99.90
5870;DHT22;2961;47.702;9.410;2023-07-28T06:02:02;17.90;99.90
5870;DHT22;2961;47.702;9.410;2023-07-28T06:04:29;18.50;99.90
5870;DHT22;2961;47.702;9.410;2023-07-28T06:06:56;18.90;99.90
5870;DHT22;2961;47.702;9.410;2023-07-28T06:09:23;19.20;99.90
5870;DHT22;2961;47.702;9.410;2023-07-28T06:11:50;19.30;99.90
5870;DHT22;2961;47.702;9.410;2023-07-28T06:14:16;19.50;99.90
5870;DHT22;2961;47.702;9.410;2023-07-28T06:16:43;20.20;99.90
5870;DHT22;2961;47.702;9.410;2023-07-28T06:19:11;21.60;99.90
5870;DHT22;2961;47.702;9.410;2023-07-28T06:21:38;23.40;99.90
5870;DHT22;2961;47.702;9.410;2023-07-28T06:24:05;24.30;99.90
5870;DHT22;2961;47.702;9.410;2023-07-28T06:26:32;24.50;99.90
5870;DHT22;2961;47.702;9.410;2023-07-28T06:28:59;24.00;99.90
5870;DHT22;2961;47.702;9.410;2023-07-28T06:31:25;23.60;99.90
5870;DHT22;2961;47.702;9.410;2023-07-28T06:33:52;23.20;99.90
5870;DHT22;2961;47.702;9.410;2023-07-28T06:36:20;22.60;99.90
5870;DHT22;2961;47.702;9.410;2023-07-28T06:38:47;22.30;99.90
5870;DHT22;2961;47.702;9.410;2023-07-28T06:41:15;22.00;99.90
5870;DHT22;2961;47.702;9.410;2023-07-28T06:43:42;22.40;99.90
5870;DHT22;2961;47.702;9.410;2023-07-28T06:46:09;23.40;99.90
5870;DHT22;2961;47.702;9.410;2023-07-28T06:48:36;25.10;99.90
5870;DHT22;2961;47.702;9.410;2023-07-28T06:51:02;26.90;99.90
5870;DHT22;2961;47.702;9.410;2023-07-28T06:53:30;27.30;99.90
5870;DHT22;2961;47.702;9.410;2023-07-28T06:55:57;27.20;99.90
5870;DHT22;2961;47.702;9.410;2023-07-28T06:58:24;27.20;99.60
5870;DHT22;2961;47.702;9.410;2023-07-28T07:00:51;27.10;99.10
5870;DHT22;2961;47.702;9.410;2023-07-28T07:03:18;26.70;99.90
5870;DHT22;2961;47.702;9.410;2023-07-28T07:05:45;26.30;99.90
5870;DHT22;2961;47.702;9.410;2023-07-28T07:08:12;25.90;99.90
5870;DHT22;2961;47.702;9.410;2023-07-28T07:10:40;25.40;99.90
5870;DHT22;2961;47.702;9.410;2023-07-28T07:13:13;24.70;99.90
5870;DHT22;2961;47.702;9.410;2023-07-28T07:15:40;24.00;99.90
5870;DHT22;2961;47.702;9.410;2023-07-28T07:18:07;23.70;99.90
5870;DHT22;2961;47.702;9.410;2023-07-28T07:20:34;23.50;99.90
5870;DHT22;2961;47.702;9.410;2023-07-28T07:23:01;23.60;99.90
5870;DHT22;2961;47.702;9.410;2023-07-28T07:25:28;23.40;99.90
5870;DHT22;2961;47.702;9.410;2023-07-28T07:27:56;23.00;99.90
5870;DHT22;2961;47.702;9.410;2023-07-28T07:30:23;22.50;99.90
5870;DHT22;2961;47.702;9.410;2023-07-28T07:32:50;22.30;99.90
5870;DHT22;2961;47.702;9.410;2023-07-28T07:35:16;22.20;99.90
5870;DHT22;2961;47.702;9.410;2023-07-28T07:37:43;22.60;99.90
5870;DHT22;2961;47.702;9.410;2023-07-28T07:40:11;23.20;99.90
5870;DHT22;2961;47.702;9.410;2023-07-28T07:42:41;23.80;99.90
5870;DHT22;2961;47.702;9.410;2023-07-28T07:45:11;24.60;99.90
5870;DHT22;2961;47.702;9.410;2023-07-28T07:47:38;24.80;99.90
5870;DHT22;2961;47.702;9.410;2023-07-28T07:50:06;25.20;99.90
5870;DHT22;2961;47.702;9.410;2023-07-28T07:52:34;26.70;99.90
5870;DHT22;2961;47.702;9.410;2023-07-28T07:55:01;27.80;99.90
5870;DHT22;2961;47.702;9.410;2023-07-28T07:57:28;28.00;99.60
5870;DHT22;2961;47.702;9.410;2023-07-28T07:59:56;27.20;99.90
5870;DHT22;2961;47.702;9.410;2023-07-28T08:02:24;27.00;99.90
5870;DHT22;2961;47.702;9.410;2023-07-28T08:04:52;26.90;99.90
5870;DHT22;2961;47.702;9.410;2023-07-28T08:07:19;27.10;99.90
5870;DHT22;2961;47.702;9.410;2023-07-28T08:09:46;27.80;99.90
5870;DHT22;2961;47.702;9.410;2023-07-28T08:12:15;27.90;99.10
5870;DHT22;2961;47.702;9.410;2023-07-28T08:14:42;28.80;97.90
5870;DHT22;2961;47.702;9.410;2023-07-28T08:17:09;29.40;96.40
5870;DHT22;2961;47.702;9.410;2023-07-28T08:19:37;29.80;95.40
5870;DHT22;2961;47.702;9.410;2023-07-28T08:22:04;29.70;92.90
5870;DHT22;2961;47.702;9.410;2023-07-28T08:24:31;29.50;92.90
5870;DHT22;2961;47.702;9.410;2023-07-28T08:26:58;29.20;93.60
5870;DHT22;2961;47.702;9.410;2023-07-28T08:29:24;29.20;93.50
5870;DHT22;2961;47.702;9.410;2023-07-28T08:31:52;29.60;91.60
5870;DHT22;2961;47.702;9.410;2023-07-28T08:34:19;29.60;92.50
5870;DHT22;2961;47.702;9.410;2023-07-28T08:36:47;30.20;92.10
5870;DHT22;2961;47.702;9.410;2023-07-28T08:39:13;30.50;91.00
5870;DHT22;2961;47.702;9.410;2023-07-28T08:41:41;30.60;90.10
5870;DHT22;2961;47.702;9.410;2023-07-28T08:44:08;30.50;86.20
5870;DHT22;2961;47.702;9.410;2023-07-28T08:46:35;30.50;87.20
5870;DHT22;2961;47.702;9.410;2023-07-28T08:49:03;30.80;86.60
5870;DHT22;2961;47.702;9.410;2023-07-28T08:51:30;30.60;84.80
5870;DHT22;2961;47.702;9.410;2023-07-28T08:53:58;30.10;87.50
5870;DHT22;2961;47.702;9.410;2023-07-28T08:56:24;30.10;86.40
5870;DHT22;2961;47.702;9.410;2023-07-28T08:58:57;30.20;87.60
5870;DHT22;2961;47.702;9.410;2023-07-28T09:01:25;30.30;86.90
5870;DHT22;2961;47.702;9.410;2023-07-28T09:03:52;30.10;84.70
5870;DHT22;2961;47.702;9.410;2023-07-28T09:06:28;29.80;84.60
5870;DHT22;2961;47.702;9.410;2023-07-28T09:08:57;29.60;85.80
5870;DHT22;2961;47.702;9.410;2023-07-28T09:11:24;29.00;89.10
5870;DHT22;2961;47.702;9.410;2023-07-28T09:13:54;28.50;88.30
5870;DHT22;2961;47.702;9.410;2023-07-28T09:16:21;28.10;88.40
5870;DHT22;2961;47.702;9.410;2023-07-28T09:18:50;27.60;91.10
5870;DHT22;2961;47.702;9.410;2023-07-28T09:21:17;27.10;91.90
5870;DHT22;2961;47.702;9.410;2023-07-28T09:23:46;26.80;92.20
5870;DHT22;2961;47.702;9.410;2023-07-28T09:26:15;26.40;93.30
5870;DHT22;2961;47.702;9.410;2023-07-28T09:28:42;26.20;94.50
5870;DHT22;2961;47.702;9.410;2023-07-28T09:31:09;26.00;94.90
5870;DHT22;2961;47.702;9.410;2023-07-28T09:33:37;25.70;95.60
5870;DHT22;2961;47.702;9.410;2023-07-28T09:36:09;25.30;96.20
5870;DHT22;2961;47.702;9.410;2023-07-28T09:38:37;25.10;96.40
5870;DHT22;2961;47.702;9.410;2023-07-28T09:41:06;24.90;96.20
5870;DHT22;2961;47.702;9.410;2023-07-28T09:43:36;24.90;97.60
5870;DHT22;2961;47.702;9.410;2023-07-28T09:46:04;24.90;96.80
5870;DHT22;2961;47.702;9.410;2023-07-28T09:48:33;24.90;97.50
5870;DHT22;2961;47.702;9.410;2023-07-28T09:51:02;25.10;97.50
5870;DHT22;2961;47.702;9.410;2023-07-28T09:53:33;25.10;97.20
5870;DHT22;2961;47.702;9.410;2023-07-28T09:56:02;25.20;97.80
5870;DHT22;2961;47.702;9.410;2023-07-28T09:58:34;25.50;97.60
5870;DHT22;2961;47.702;9.410;2023-07-28T10:01:05;25.60;97.00
5870;DHT22;2961;47.702;9.410;2023-07-28T10:03:33;25.70;97.20
5870;DHT22;2961;47.702;9.410;2023-07-28T10:06:00;26.00;96.50
5870;DHT22;2961;47.702;9.410;2023-07-28T10:08:27;26.30;96.80
5870;DHT22;2961;47.702;9.410;2023-07-28T10:10:54;26.90;95.30
5870;DHT22;2961;47.702;9.410;2023-07-28T10:13:22;26.90;93.30
5870;DHT22;2961;47.702;9.410;2023-07-28T10:15:49;27.10;94.30
5870;DHT22;2961;47.702;9.410;2023-07-28T10:18:19;27.60;93.50
5870;DHT22;2961;47.702;9.410;2023-07-28T10:20:46;27.80;92.30
5870;DHT22;2961;47.702;9.410;2023-07-28T10:23:15;27.70;93.80
5870;DHT22;2961;47.702;9.410;2023-07-28T10:25:44;27.50;93.40
5870;DHT22;2961;47.702;9.410;2023-07-28T10:28:28;27.10;93.40
5870;DHT22;2961;47.702;9.410;2023-07-28T10:30:57;26.80;93.70
5870;DHT22;2961;47.702;9.410;2023-07-28T10:33:33;26.80;94.50
5870;DHT22;2961;47.702;9.410;2023-07-28T10:36:14;26.90;94.80
5870;DHT22;2961;47.702;9.410;2023-07-28T10:38:41;26.80;94.30
5870;DHT22;2961;47.702;9.410;2023-07-28T10:41:14;26.70;94.40
5870;DHT22;2961;47.702;9.410;2023-07-28T10:43:41;26.60;94.00
5870;DHT22;2961;47.702;9.410;2023-07-28T10:46:09;26.60;94.80
5870;DHT22;2961;47.702;9.410;2023-07-28T10:48:41;26.50;95.00
5870;DHT22;2961;47.702;9.410;2023-07-28T10:51:09;26.60;95.00
5870;DHT22;2961;47.702;9.410;2023-07-28T10:53:37;26.70;94.30
5870;DHT22;2961;47.702;9.410;2023-07-28T10:56:05;27.00;94.30
5870;DHT22;2961;47.702;9.410;2023-07-28T10:58:34;27.20;95.20
5870;DHT22;2961;47.702;9.410;2023-07-28T11:01:02;27.40;94.30
5870;DHT22;2961;47.702;9.410;2023-07-28T11:03:29;27.50;93.20
5870;DHT22;2961;47.702;9.410;2023-07-28T11:05:57;27.70;92.70
5870;DHT22;2961;47.702;9.410;2023-07-28T11:08:24;27.90;91.90
5870;DHT22;2961;47.702;9.410;2023-07-28T11:10:51;28.10;92.00
5870;DHT22;2961;47.702;9.410;2023-07-28T11:13:18;28.20;91.70
5870;DHT22;2961;47.702;9.410;2023-07-28T11:15:45;28.20;90.90
5870;DHT22;2961;47.702;9.410;2023-07-28T11:18:15;28.20;90.80
5870;DHT22;2961;47.702;9.410;2023-07-28T11:20:42;28.20;90.50
5870;DHT22;2961;47.702;9.410;2023-07-28T11:23:10;28.10;91.00
5870;DHT22;2961;47.702;9.410;2023-07-28T11:25:41;28.00;90.80
5870;DHT22;2961;47.702;9.410;2023-07-28T11:28:09;28.00;91.10
5870;DHT22;2961;47.702;9.410;2023-07-28T11:30:37;28.00;91.90
5870;DHT22;2961;47.702;9.410;2023-07-28T11:33:08;28.10;91.40
5870;DHT22;2961;47.702;9.410;2023-07-28T11:35:36;28.30;91.70
5870;DHT22;2961;47.702;9.410;2023-07-28T11:38:03;28.30;91.90
5870;DHT22;2961;47.702;9.410;2023-07-28T11:40:31;28.50;91.00
5870;DHT22;2961;47.702;9.410;2023-07-28T11:42:59;28.50;91.20
5870;DHT22;2961;47.702;9.410;2023-07-28T11:45:26;28.80;91.10
5870;DHT22;2961;47.702;9.410;2023-07-28T11:47:55;28.80;91.00
5870;DHT22;2961;47.702;9.410;2023-07-28T11:50:23;29.00;91.00
5870;DHT22;2961;47.702;9.410;2023-07-28T11:52:50;28.90;90.00
5870;DHT22;2961;47.702;9.410;2023-07-28T11:55:18;28.90;90.70
5870;DHT22;2961;47.702;9.410;2023-07-28T11:57:48;29.00;90.80
5870;DHT22;2961;47.702;9.410;2023-07-28T12:00:15;29.10;90.20
5870;DHT22;2961;47.702;9.410;2023-07-28T12:02:44;29.00;89.90
5870;DHT22;2961;47.702;9.410;2023-07-28T12:05:13;29.00;90.50
5870;DHT22;2961;47.702;9.410;2023-07-28T12:07:40;29.10;90.80
5870;DHT22;2961;47.702;9.410;2023-07-28T12:10:07;29.10;90.90
5870;DHT22;2961;47.702;9.410;2023-07-28T12:12:40;28.90;89.60
5870;DHT22;2961;47.702;9.410;2023-07-28T12:15:20;28.70;89.40
5870;DHT22;2961;47.702;9.410;2023-07-28T12:18:09;28.50;90.70
5870;DHT22;2961;47.702;9.410;2023-07-28T12:20:38;28.40;90.60
5870;DHT22;2961;47.702;9.410;2023-07-28T12:23:05;28.30;90.80
5870;DHT22;2961;47.702;9.410;2023-07-28T12:25:33;28.30;90.30
5870;DHT22;2961;47.702;9.410;2023-07-28T12:27:59;28.30;90.50
5870;DHT22;2961;47.702;9.410;2023-07-28T12:30:28;28.30;90.70
5870;DHT22;2961;47.702;9.410;2023-07-28T12:32:55;28.40;90.90
5870;DHT22;2961;47.702;9.410;2023-07-28T12:35:22;28.50;91.10
5870;DHT22;2961;47.702;9.410;2023-07-28T12:37:50;28.60;91.20
5870;DHT22;2961;47.702;9.410;2023-07-28T12:40:17;28.70;90.50
5870;DHT22;2961;47.702;9.410;2023-07-28T12:42:45;28.50;90.00
5870;DHT22;2961;47.702;9.410;2023-07-28T12:45:13;28.70;90.60
5870;DHT22;2961;47.702;9.410;2023-07-28T12:47:42;28.90;90.50
5870;DHT22;2961;47.702;9.410;2023-07-28T12:50:09;28.80;90.30
5870;DHT22;2961;47.702;9.410;2023-07-28T12:52:37;28.80;90.50
5870;DHT22;2961;47.702;9.410;2023-07-28T12:55:04;28.70;90.30
5870;DHT22;2961;47.702;9.410;2023-07-28T12:57:31;28.50;90.10
5870;DHT22;2961;47.702;9.410;2023-07-28T12:59:58;28.40;90.30
5870;DHT22;2961;47.702;9.410;2023-07-28T13:02:25;28.30;89.40
5870;DHT22;2961;47.702;9.410;2023-07-28T13:04:53;28.10;90.10
5870;DHT22;2961;47.702;9.410;2023-07-28T13:07:20;28.00;89.10
5870;DHT22;2961;47.702;9.410;2023-07-28T13:09:48;27.90;88.80
5870;DHT22;2961;47.702;9.410;2023-07-28T13:12:14;27.90;90.20
5870;DHT22;2961;47.702;9.410;2023-07-28T13:14:41;27.90;91.10
5870;DHT22;2961;47.702;9.410;2023-07-28T13:17:08;28.00;90.80
5870;DHT22;2961;47.702;9.410;2023-07-28T13:19:35;27.90;91.60
5870;DHT22;2961;47.702;9.410;2023-07-28T13:22:03;27.80;91.40
5870;DHT22;2961;47.702;9.410;2023-07-28T13:24:30;27.80;91.30
5870;DHT22;2961;47.702;9.410;2023-07-28T13:26:56;27.90;92.30
5870;DHT22;2961;47.702;9.410;2023-07-28T13:29:23;28.10;91.90
5870;DHT22;2961;47.702;9.410;2023-07-28T13:31:50;28.40;92.00
5870;DHT22;2961;47.702;9.410;2023-07-28T13:34:17;28.80;91.40
5870;DHT22;2961;47.702;9.410;2023-07-28T13:36:44;29.00;90.90
5870;DHT22;2961;47.702;9.410;2023-07-28T13:39:12;29.10;87.50
5870;DHT22;2961;47.702;9.410;2023-07-28T13:41:38;29.10;88.60
5870;DHT22;2961;47.702;9.410;2023-07-28T13:44:05;28.90;89.70
5870;DHT22;2961;47.702;9.410;2023-07-28T13:46:32;28.70;89.00
5870;DHT22;2961;47.702;9.410;2023-07-28T13:48:59;28.70;90.10
5870;DHT22;2961;47.702;9.410;2023-07-28T13:51:26;28.50;89.30
5870;DHT22;2961;47.702;9.410;2023-07-28T13:53:52;28.30;90.10
5870;DHT22;2961;47.702;9.410;2023-07-28T13:56:20;28.30;89.60
5870;DHT22;2961;47.702;9.410;2023-07-28T13:58:47;28.20;90.60
5870;DHT22;2961;47.702;9.410;2023-07-28T14:01:14;28.00;91.10
5870;DHT22;2961;47.702;9.410;2023-07-28T14:03:41;28.00;91.00
5870;DHT22;2961;47.702;9.410;2023-07-28T14:06:08;28.10;91.50
5870;DHT22;2961;47.702;9.410;2023-07-28T14:08:34;28.00;91.00
5870;DHT22;2961;47.702;9.410;2023-07-28T14:11:01;28.10;91.70
5870;DHT22;2961;47.702;9.410;2023-07-28T14:13:29;28.10;90.50
5870;DHT22;2961;47.702;9.410;2023-07-28T14:15:58;28.10;91.00
5870;DHT22;2961;47.702;9.410;2023-07-28T14:18:24;28.30;90.40
5870;DHT22;2961;47.702;9.410;2023-07-28T14:20:51;28.40;91.30
5870;DHT22;2961;47.702;9.410;2023-07-28T14:23:23;28.50;90.50
5870;DHT22;2961;47.702;9.410;2023-07-28T14:25:50;28.60;90.40
5870;DHT22;2961;47.702;9.410;2023-07-28T14:28:17;28.60;90.90
5870;DHT22;2961;47.702;9.410;2023-07-28T14:30:45;28.50;89.80
5870;DHT22;2961;47.702;9.410;2023-07-28T14:33:13;28.30;90.40
5870;DHT22;2961;47.702;9.410;2023-07-28T14:35:40;28.10;91.00
5870;DHT22;2961;47.702;9.410;2023-07-28T14:38:07;27.70;90.80
5870;DHT22;2961;47.702;9.410;2023-07-28T14:40:34;27.60;91.70
5870;DHT22;2961;47.702;9.410;2023-07-28T14:43:01;27.40;91.90
5870;DHT22;2961;47.702;9.410;2023-07-28T14:45:28;27.20;91.50
5870;DHT22;2961;47.702;9.410;2023-07-28T14:47:56;27.10;91.70
5870;DHT22;2961;47.702;9.410;2023-07-28T14:50:23;27.10;92.10
5870;DHT22;2961;47.702;9.410;2023-07-28T14:52:50;27.10;92.80
5870;DHT22;2961;47.702;9.410;2023-07-28T14:55:17;27.10;92.10
5870;DHT22;2961;47.702;9.410;2023-07-28T14:57:43;27.10;92.50
5870;DHT22;2961;47.702;9.410;2023-07-28T15:00:11;27.10;92.80
5870;DHT22;2961;47.702;9.410;2023-07-28T15:02:38;27.10;93.20
5870;DHT22;2961;47.702;9.410;2023-07-28T15:05:07;27.10;93.40
5870;DHT22;2961;47.702;9.410;2023-07-28T15:07:34;26.90;92.50
5870;DHT22;2961;47.702;9.410;2023-07-28T15:10:02;26.80;92.80
5870;DHT22;2961;47.702;9.410;2023-07-28T15:12:29;26.70;92.90
5870;DHT22;2961;47.702;9.410;2023-07-28T15:14:56;26.60;92.90
5870;DHT22;2961;47.702;9.410;2023-07-28T15:17:23;26.30;93.00
5870;DHT22;2961;47.702;9.410;2023-07-28T15:19:49;26.20;95.00
5870;DHT22;2961;47.702;9.410;2023-07-28T15:22:18;26.10;95.00
5870;DHT22;2961;47.702;9.410;2023-07-28T15:24:44;25.90;95.80
5870;DHT22;2961;47.702;9.410;2023-07-28T15:27:11;25.60;95.70
5870;DHT22;2961;47.702;9.410;2023-07-28T15:29:38;25.50;96.40
5870;DHT22;2961;47.702;9.410;2023-07-28T15:32:05;25.30;96.90
5870;DHT22;2961;47.702;9.410;2023-07-28T15:34:32;25.10;97.30
5870;DHT22;2961;47.702;9.410;2023-07-28T15:37:00;24.90;97.90
5870;DHT22;2961;47.702;9.410;2023-07-28T15:39:30;24.70;97.90
5870;DHT22;2961;47.702;9.410;2023-07-28T15:41:57;24.50;99.90
5870;DHT22;2961;47.702;9.410;2023-07-28T15:44:24;24.20;99.90
5870;DHT22;2961;47.702;9.410;2023-07-28T15:46:51;23.90;99.90
5870;DHT22;2961;47.702;9.410;2023-07-28T15:49:18;23.50;99.90
5870;DHT22;2961;47.702;9.410;2023-07-28T15:51:45;23.20;99.90
5870;DHT22;2961;47.702;9.410;2023-07-28T15:54:12;22.90;99.90
5870;DHT22;2961;47.702;9.410;2023-07-28T15:56:40;22.70;99.90
5870;DHT22;2961;47.702;9.410;2023-07-28T15:59:07;22.30;99.90
5870;DHT22;2961;47.702;9.410;2023-07-28T16:01:35;21.90;99.90
5870;DHT22;2961;47.702;9.410;2023-07-28T16:04:02;21.50;99.90